Time;durP1;ratioP1;P1;durP2;ratioP2;P2;SDS_P1;SDS_P2;PMS_P1;PMS_P2;Temp;Humidity;BMP_temperature;BMP_pressure;BME280_temperature;BME280_humidity;BME280_pressure;Samples;Min_cycle;Max_cycle;Signal;HPM_P1;HPM_P2
2021/12/19 00:10:38;;;;;;;6.43;2.22;;;4.80;99.90;;;;;;5292710;28;20512;-71
2021/12/19 00:13:09;;;;;;;6.38;1.83;;;4.90;99.90;;;;;;5292728;28;20015;-71
2021/12/19 00:15:40;;;;;;;6.28;1.85;;;4.90;99.90;;;;;;5292836;28;20455;-71
2021/12/19 00:18:11;;;;;;;3.20;1.50;;;4.90;99.90;;;;;;5292801;28;20024;-71
2021/12/19 00:20:42;;;;;;;6.22;1.50;;;5.00;99.90;;;;;;5292843;28;20027;-71
2021/12/19 00:23:13;;;;;;;4.25;1.30;;;5.00;99.90;;;;;;5292222;28;20043;-72
2021/12/19 00:25:44;;;;;;;8.70;1.75;;;5.00;99.90;;;;;;5292560;28;20059;-71
2021/12/19 00:28:15;;;;;;;3.42;1.23;;;5.00;99.90;;;;;;5292477;28;20421;-71
2021/12/19 00:30:46;;;;;;;3.50;1.77;;;5.00;99.90;;;;;;5292526;28;20131;-71
2021/12/19 00:33:17;;;;;;;7.45;1.80;;;5.10;99.90;;;;;;5292386;28;20044;-71
2021/12/19 00:35:48;;;;;;;6.40;1.73;;;5.10;99.90;;;;;;5292387;28;20474;-71
2021/12/19 00:38:19;;;;;;;6.93;1.58;;;5.10;99.90;;;;;;5292380;28;20466;-71
2021/12/19 00:40:49;;;;;;;8.63;1.70;;;5.20;99.90;;;;;;5292181;28;20027;-72
2021/12/19 00:44:08;;;;;;;5.80;1.08;;;5.20;99.90;;;;;;5292011;28;20118;-71
2021/12/19 00:46:16;;;;;;;4.35;1.35;;;5.10;99.90;;;;;;5286225;28;20062;-70
2021/12/19 00:48:50;;;;;;;8.23;1.70;;;5.10;99.90;;;;;;5292265;28;20020;-71
2021/12/19 00:51:25;;;;;;;9.27;1.60;;;5.10;99.90;;;;;;5291832;28;20023;-71
2021/12/19 00:53:56;;;;;;;6.70;1.40;;;5.10;99.90;;;;;;5291588;28;20118;-71
2021/12/19 00:56:26;;;;;;;8.38;2.15;;;5.10;99.90;;;;;;5291985;28;20119;-71
2021/12/19 00:58:57;;;;;;;4.75;1.35;;;5.10;99.90;;;;;;5291844;28;20020;-71
2021/12/19 01:01:28;;;;;;;7.18;1.60;;;5.10;99.90;;;;;;5291774;28;20024;-71
2021/12/19 01:03:59;;;;;;;4.20;1.08;;;5.10;99.90;;;;;;5291737;28;20062;-71
2021/12/19 01:06:30;;;;;;;5.13;1.40;;;5.10;99.90;;;;;;5291730;28;20054;-71
2021/12/19 01:09:01;;;;;;;6.32;1.20;;;5.10;99.90;;;;;;5291787;28;20020;-70
2021/12/19 01:11:33;;;;;;;4.90;1.27;;;5.10;99.90;;;;;;5291622;28;20069;-70
2021/12/19 01:14:05;;;;;;;9.30;1.20;;;5.10;99.90;;;;;;5291517;27;20027;-71
2021/12/19 01:16:36;;;;;;;5.95;1.35;;;5.10;99.90;;;;;;5291598;28;20024;-71
2021/12/19 01:19:06;;;;;;;7.35;1.45;;;5.10;99.90;;;;;;5291471;28;20546;-73
2021/12/19 01:21:37;;;;;;;6.93;2.15;;;5.10;99.90;;;;;;5291221;28;20031;-71
2021/12/19 01:24:08;;;;;;;4.15;1.50;;;5.20;99.90;;;;;;5291262;28;20084;-71
2021/12/19 01:26:42;;;;;;;12.32;2.10;;;5.10;99.90;;;;;;5291309;28;20506;-71
2021/12/19 01:29:13;;;;;;;8.32;1.95;;;5.10;99.90;;;;;;5291303;28;20020;-71
2021/12/19 01:31:44;;;;;;;3.05;1.23;;;5.20;99.90;;;;;;5291266;28;20081;-71
2021/12/19 01:34:15;;;;;;;4.25;1.15;;;5.10;99.90;;;;;;5291137;28;20020;-71
2021/12/19 01:36:46;;;;;;;3.30;1.52;;;5.20;99.90;;;;;;5291035;28;20085;-70
2021/12/19 01:39:17;;;;;;;5.53;1.33;;;5.10;99.90;;;;;;5291171;28;20016;-70
2021/12/19 01:41:53;;;;;;;7.85;1.50;;;5.20;99.90;;;;;;5290925;28;20442;-71
2021/12/19 01:44:25;;;;;;;5.00;1.65;;;5.10;99.90;;;;;;5291105;28;20428;-70
2021/12/19 01:46:56;;;;;;;4.00;1.40;;;5.10;99.90;;;;;;5291037;28;20015;-70
2021/12/19 01:49:27;;;;;;;10.50;1.50;;;5.10;99.90;;;;;;5291051;28;20409;-71
2021/12/19 01:51:58;;;;;;;5.32;1.42;;;5.10;99.90;;;;;;5289972;28;20039;-71
2021/12/19 01:54:29;;;;;;;8.98;1.40;;;5.10;99.90;;;;;;5290732;28;20085;-71
2021/12/19 01:57:00;;;;;;;4.07;1.08;;;5.20;99.90;;;;;;5290826;28;20053;-71
2021/12/19 01:59:31;;;;;;;5.78;1.38;;;5.20;99.90;;;;;;5290800;28;20016;-71
2021/12/19 02:02:02;;;;;;;4.85;1.30;;;5.10;99.90;;;;;;5290583;28;20067;-70
2021/12/19 02:04:33;;;;;;;2.95;1.50;;;5.10;99.90;;;;;;5290618;28;20028;-71
2021/12/19 02:07:04;;;;;;;6.93;1.30;;;5.10;99.90;;;;;;5290698;28;20030;-71
2021/12/19 02:09:35;;;;;;;7.47;1.30;;;5.20;99.90;;;;;;5290502;28;20004;-71
2021/12/19 02:12:07;;;;;;;5.18;1.33;;;5.10;99.90;;;;;;5290378;28;20031;-71
2021/12/19 02:14:38;;;;;;;6.38;1.70;;;5.20;99.90;;;;;;5290574;28;20035;-75
2021/12/19 02:17:09;;;;;;;8.55;1.60;;;5.10;99.90;;;;;;5290425;28;20429;-70
2021/12/19 02:19:40;;;;;;;3.60;1.10;;;5.10;99.90;;;;;;5290467;28;20038;-70
2021/12/19 02:22:11;;;;;;;3.65;0.90;;;5.10;99.90;;;;;;5289962;28;20143;-71
2021/12/19 02:24:42;;;;;;;5.15;1.10;;;5.10;99.90;;;;;;5290258;28;20108;-71
2021/12/19 02:27:13;;;;;;;9.77;1.40;;;5.10;99.90;;;;;;5290272;27;20039;-71
2021/12/19 02:29:43;;;;;;;5.18;1.25;;;5.10;99.90;;;;;;5290342;28;20120;-71
2021/12/19 02:32:14;;;;;;;5.75;1.25;;;5.20;99.90;;;;;;5290134;28;20028;-72
2021/12/19 02:34:48;;;;;;;6.20;1.20;;;5.10;99.90;;;;;;5290334;28;20020;-71
2021/12/19 02:48:48;;;;;;;21.08;9.75;;;5.10;99.90;;;;;;5290518;28;20024;-70
2021/12/19 02:51:34;;;;;;;19.60;7.43;;;5.20;99.90;;;;;;5289729;28;20356;-70
2021/12/19 02:54:09;;;;;;;81.68;34.40;;;5.10;99.90;;;;;;5289890;28;20055;-71
2021/12/19 02:56:40;;;;;;;23.02;10.02;;;5.20;99.90;;;;;;5290029;28;20130;-71
2021/12/19 02:59:11;;;;;;;15.95;6.88;;;5.20;99.90;;;;;;5290066;28;20107;-71
2021/12/19 03:01:44;;;;;;;6.82;1.70;;;5.10;99.90;;;;;;5290113;28;20027;-71
2021/12/19 03:04:15;;;;;;;4.28;1.40;;;5.00;99.90;;;;;;5291874;28;20031;-71
2021/12/19 03:06:47;;;;;;;4.93;1.77;;;5.20;99.90;;;;;;5294217;28;20016;-75
2021/12/19 03:10:01;;;;;;;8.50;6.20;;;5.10;99.90;;;;;;5294151;28;20421;-71
2021/12/19 03:12:27;;;;;;;23.42;13.32;;;5.10;99.90;;;;;;5293804;28;20482;-71
2021/12/19 03:17:59;;;;;;;6.20;2.70;;;5.20;99.90;;;;;;5294207;28;20031;-71
2021/12/19 03:20:32;;;;;;;3.78;2.65;;;5.10;99.90;;;;;;5294004;28;20106;-71
2021/12/19 03:23:03;;;;;;;5.85;2.53;;;5.10;99.90;;;;;;5293603;28;20101;-72
2021/12/19 03:25:34;;;;;;;7.18;3.00;;;5.10;99.90;;;;;;5293933;27;20016;-71
2021/12/19 03:28:07;;;;;;;7.75;3.20;;;5.10;99.90;;;;;;5277565;28;20105;-75
2021/12/19 03:30:39;;;;;;;7.18;3.30;;;5.10;99.90;;;;;;5272368;28;20065;-71
2021/12/19 03:33:11;;;;;;;12.75;3.47;;;5.20;99.90;;;;;;5272391;28;20030;-72
2021/12/19 03:35:43;;;;;;;4.00;0.88;;;5.10;99.90;;;;;;5272463;28;20028;-71
2021/12/19 03:38:16;;;;;;;2.63;1.52;;;5.10;99.90;;;;;;5272508;28;20031;-72
2021/12/19 03:41:07;;;;;;;4.57;1.48;;;5.10;99.90;;;;;;5272381;28;20035;-76
2021/12/19 03:43:39;;;;;;;6.60;2.25;;;5.20;99.90;;;;;;5272270;28;20043;-71
2021/12/19 03:46:10;;;;;;;6.07;4.43;;;5.20;99.90;;;;;;5272465;28;20027;-75
2021/12/19 03:48:41;;;;;;;4.75;2.08;;;5.20;99.90;;;;;;5272339;28;20069;-74
2021/12/19 03:51:12;;;;;;;4.22;2.30;;;5.10;99.90;;;;;;5272167;28;20020;-71
2021/12/19 03:53:43;;;;;;;3.40;1.25;;;5.10;99.90;;;;;;5271987;28;20138;-71
2021/12/19 03:56:14;;;;;;;5.85;1.38;;;5.10;99.90;;;;;;5272260;28;20103;-71
2021/12/19 03:58:45;;;;;;;4.07;1.23;;;5.10;99.90;;;;;;5272133;28;20028;-71
2021/12/19 04:01:16;;;;;;;1.58;0.80;;;5.20;99.90;;;;;;5272111;28;20417;-71
2021/12/19 04:03:47;;;;;;;7.07;2.25;;;5.00;99.90;;;;;;5271847;28;20361;-71
2021/12/19 04:06:18;;;;;;;2.97;1.65;;;5.00;99.90;;;;;;5271929;28;20008;-71
2021/12/19 04:08:50;;;;;;;3.13;1.60;;;4.90;99.90;;;;;;5271914;28;20099;-71
2021/12/19 04:11:24;;;;;;;2.83;1.50;;;4.90;99.90;;;;;;5271952;28;20024;-72
2021/12/19 04:13:55;;;;;;;6.30;2.67;;;5.00;99.90;;;;;;5271621;28;20028;-71
2021/12/19 04:16:25;;;;;;;5.13;2.10;;;4.90;99.90;;;;;;5271556;28;20076;-71
2021/12/19 04:18:57;;;;;;;4.32;1.10;;;5.00;99.90;;;;;;5271855;28;20013;-71
2021/12/19 04:21:27;;;;;;;4.13;1.20;;;4.90;99.90;;;;;;5271362;28;20107;-71
2021/12/19 04:23:58;;;;;;;3.15;1.65;;;5.00;99.90;;;;;;5271242;28;20447;-71
2021/12/19 04:26:29;;;;;;;3.78;2.00;;;4.90;99.90;;;;;;5271596;28;20099;-75
2021/12/19 04:29:00;;;;;;;3.97;1.35;;;4.80;99.90;;;;;;5271554;28;20024;-71
2021/12/19 04:31:30;;;;;;;4.88;1.55;;;4.80;99.90;;;;;;5271329;28;20020;-71
2021/12/19 04:34:01;;;;;;;7.45;4.50;;;4.70;99.90;;;;;;5271327;28;20024;-75
2021/12/19 04:36:38;;;;;;;9.00;4.25;;;4.60;99.90;;;;;;5271354;28;20031;-75
2021/12/19 04:42:25;;;;;;;8.63;4.90;;;4.40;99.90;;;;;;5271279;28;20024;-75
2021/12/19 05:01:33;;;;;;;3.95;1.90;;;4.60;99.90;;;;;;5270847;28;20021;-71
2021/12/19 05:14:52;;;;;;;8.68;2.45;;;4.50;99.90;;;;;;5270678;28;20027;-72
2021/12/19 05:17:26;;;;;;;14.48;6.03;;;4.60;99.90;;;;;;5270375;28;20035;-71
2021/12/19 05:22:47;;;;;;;5.53;1.88;;;4.50;99.90;;;;;;5270231;28;20052;-72
2021/12/19 05:25:18;;;;;;;7.07;2.30;;;4.50;99.90;;;;;;5270265;28;20363;-72
2021/12/19 05:27:53;;;;;;;12.77;6.97;;;4.50;99.90;;;;;;5269355;28;20028;-71
2021/12/19 05:30:24;;;;;;;3.88;2.13;;;4.60;99.90;;;;;;5270333;28;20047;-71
2021/12/19 05:32:55;;;;;;;2.80;0.95;;;4.50;99.90;;;;;;5270142;28;20031;-72
2021/12/19 05:45:11;;;;;;;3.60;1.80;;;4.50;99.90;;;;;;5269876;28;20514;-76
2021/12/19 05:47:02;;;;;;;3.85;1.42;;;4.50;99.90;;;;;;5269659;28;20439;-71
2021/12/19 05:49:33;;;;;;;3.17;1.38;;;4.50;99.90;;;;;;5269839;28;20105;-71
2021/12/19 05:52:04;;;;;;;5.82;1.80;;;4.60;99.90;;;;;;5269437;28;20070;-73
2021/12/19 05:54:34;;;;;;;4.53;1.67;;;4.50;99.90;;;;;;5269642;28;20491;-72
2021/12/19 05:57:05;;;;;;;5.07;2.42;;;4.40;99.90;;;;;;5269636;28;20035;-76
2021/12/19 05:59:37;;;;;;;9.68;2.63;;;4.40;99.90;;;;;;5269633;28;20137;-76
2021/12/19 06:02:07;;;;;;;2.97;1.48;;;4.40;99.90;;;;;;5269665;28;20107;-72
2021/12/19 06:04:38;;;;;;;2.83;1.40;;;4.40;99.90;;;;;;5269628;28;20177;-72
2021/12/19 06:07:09;;;;;;;4.70;1.85;;;4.30;99.90;;;;;;5269430;28;20020;-74
2021/12/19 06:09:40;;;;;;;4.50;0.98;;;4.30;99.90;;;;;;5269587;28;20038;-71
2021/12/19 06:12:11;;;;;;;1.90;0.95;;;4.40;99.90;;;;;;5269600;28;20028;-72
2021/12/19 06:14:42;;;;;;;6.38;1.50;;;4.50;99.90;;;;;;5269539;28;20463;-71
2021/12/19 06:17:12;;;;;;;6.53;1.05;;;4.40;99.90;;;;;;5269351;28;20060;-71
2021/12/19 06:19:43;;;;;;;2.42;0.80;;;4.60;99.90;;;;;;5269475;28;20024;-72
2021/12/19 06:22:14;;;;;;;2.38;1.23;;;4.60;99.90;;;;;;5269032;28;20399;-72
2021/12/19 06:24:45;;;;;;;3.35;0.90;;;4.70;99.90;;;;;;5269248;28;20062;-71
2021/12/19 06:27:16;;;;;;;4.82;1.65;;;4.90;99.90;;;;;;5269380;28;20103;-72
2021/12/19 06:29:47;;;;;;;8.30;2.30;;;5.00;99.90;;;;;;5269329;28;20099;-72
2021/12/19 06:32:18;;;;;;;3.03;1.63;;;5.00;99.90;;;;;;5269171;28;20024;-71
2021/12/19 06:34:49;;;;;;;3.08;1.42;;;5.10;99.90;;;;;;5269263;28;20009;-76
2021/12/19 06:37:20;;;;;;;6.38;2.03;;;5.10;99.90;;;;;;5268945;28;20379;-71
2021/12/19 06:39:51;;;;;;;5.20;2.08;;;5.20;99.90;;;;;;5267814;28;20086;-72
2021/12/19 06:42:21;;;;;;;6.68;2.88;;;5.20;99.90;;;;;;5269062;28;20073;-72
2021/12/19 06:44:52;;;;;;;5.10;1.58;;;5.30;99.90;;;;;;5269128;28;20477;-71
2021/12/19 06:47:23;;;;;;;4.78;2.08;;;5.20;99.90;;;;;;5269261;28;20020;-72
2021/12/19 06:49:54;;;;;;;3.45;1.50;;;5.40;99.90;;;;;;5269110;28;20052;-75
2021/12/19 06:52:25;;;;;;;4.00;1.60;;;5.70;99.90;;;;;;5268522;28;20082;-71
2021/12/19 06:54:56;;;;;;;2.85;0.93;;;5.50;99.90;;;;;;5269096;28;20052;-71
2021/12/19 06:57:27;;;;;;;4.75;1.52;;;5.60;99.90;;;;;;5268849;28;20050;-70
2021/12/19 06:59:57;;;;;;;4.25;1.10;;;5.30;99.90;;;;;;5268909;28;20024;-76
2021/12/19 07:02:28;;;;;;;4.18;1.48;;;5.40;99.90;;;;;;5268661;28;20429;-70
2021/12/19 07:04:59;;;;;;;3.78;2.10;;;5.60;99.90;;;;;;5268731;28;20081;-69
2021/12/19 07:07:31;;;;;;;10.50;4.97;;;5.60;99.90;;;;;;5268673;28;20020;-70
2021/12/19 07:10:02;;;;;;;18.33;8.20;;;5.60;99.90;;;;;;5276573;28;20027;-75
2021/12/19 07:12:34;;;;;;;24.67;9.00;;;5.70;99.90;;;;;;5277289;28;20032;-73
2021/12/19 07:15:06;;;;;;;17.45;5.57;;;5.70;99.90;;;;;;5276771;28;20051;-69
2021/12/19 07:17:37;;;;;;;42.60;16.35;;;5.60;99.90;;;;;;5278079;28;20028;-75
2021/12/19 07:20:08;;;;;;;23.85;11.05;;;5.60;99.90;;;;;;5277488;28;20008;-69
2021/12/19 07:22:39;;;;;;;41.15;17.92;;;5.10;99.90;;;;;;5276469;28;20494;-69
2021/12/19 07:25:10;;;;;;;42.10;18.90;;;4.90;99.90;;;;;;5277118;28;20051;-70
2021/12/19 07:27:41;;;;;;;88.00;37.65;;;4.80;99.90;;;;;;5286290;28;20058;-69
2021/12/19 07:30:12;;;;;;;51.60;22.98;;;4.70;99.90;;;;;;5289704;28;20065;-69
2021/12/19 07:32:43;;;;;;;69.65;33.63;;;4.70;99.90;;;;;;5289564;28;20508;-69
2021/12/19 07:35:14;;;;;;;96.53;58.90;;;4.70;99.90;;;;;;5289660;28;20027;-70
2021/12/19 07:37:46;;;;;;;78.35;40.20;;;4.70;99.90;;;;;;5280081;28;20028;-70
2021/12/19 07:40:19;;;;;;;63.15;33.17;;;4.70;99.90;;;;;;5288655;28;20016;-70
2021/12/19 07:42:52;;;;;;;34.17;19.25;;;4.60;99.90;;;;;;5289654;28;20063;-76
2021/12/19 07:45:23;;;;;;;21.75;10.65;;;4.70;99.90;;;;;;5289558;28;20324;-75
2021/12/19 07:47:54;;;;;;;30.65;18.30;;;4.50;99.90;;;;;;5273661;28;20039;-70
2021/12/19 07:50:25;;;;;;;17.70;8.15;;;4.50;99.90;;;;;;5270428;28;20099;-70
2021/12/19 07:52:57;;;;;;;9.32;5.75;;;4.50;99.90;;;;;;5271799;28;20059;-70
2021/12/19 07:55:28;;;;;;;14.65;5.82;;;4.40;99.90;;;;;;5276552;28;20076;-70
2021/12/19 07:57:59;;;;;;;9.23;4.93;;;4.40;99.90;;;;;;5288668;28;20027;-69
2021/12/19 08:00:29;;;;;;;14.52;7.05;;;4.50;99.90;;;;;;5293177;28;20470;-69
2021/12/19 08:03:00;;;;;;;22.92;11.82;;;4.40;99.90;;;;;;5282417;28;20028;-69
2021/12/19 08:05:31;;;;;;;10.27;5.88;;;4.50;99.90;;;;;;5272059;28;20401;-69
2021/12/19 08:08:04;;;;;;;79.00;45.78;;;4.50;99.90;;;;;;5272017;28;20391;-69
2021/12/19 08:13:07;;;;;;;19.02;11.52;;;4.60;99.90;;;;;;5292976;28;20020;-69
2021/12/19 08:15:38;;;;;;;9.93;4.35;;;4.70;99.90;;;;;;5293034;27;20473;-69
2021/12/19 08:18:09;;;;;;;12.18;5.45;;;4.70;99.90;;;;;;5292809;28;20030;-69
2021/12/19 08:20:40;;;;;;;7.47;4.18;;;4.80;99.90;;;;;;5281896;28;20024;-75
2021/12/19 08:23:10;;;;;;;10.88;6.07;;;4.90;99.90;;;;;;5281334;28;20046;-69
2021/12/19 08:25:41;;;;;;;7.93;4.63;;;4.90;99.90;;;;;;5274452;28;20016;-69
2021/12/19 08:28:12;;;;;;;10.90;4.10;;;5.10;99.90;;;;;;5271662;28;20136;-69
2021/12/19 08:30:43;;;;;;;10.02;3.58;;;5.30;99.90;;;;;;5271599;28;20020;-69
2021/12/19 08:33:14;;;;;;;9.27;4.03;;;5.30;99.90;;;;;;5271396;28;20027;-69
2021/12/19 08:35:45;;;;;;;11.68;4.63;;;5.50;99.90;;;;;;5271228;28;20049;-69
2021/12/19 08:38:16;;;;;;;10.43;4.68;;;5.70;99.90;;;;;;5271268;28;20105;-78
2021/12/19 08:40:49;;;;;;;8.40;4.43;;;5.80;99.90;;;;;;5271318;28;20028;-69
2021/12/19 08:43:20;;;;;;;13.50;5.10;;;5.70;99.90;;;;;;5271093;28;20043;-69
2021/12/19 08:45:51;;;;;;;9.00;6.50;;;5.70;99.90;;;;;;5271030;28;20027;-69
2021/12/19 08:48:22;;;;;;;12.00;5.78;;;5.40;99.90;;;;;;5271113;28;20024;-69
2021/12/19 08:50:53;;;;;;;9.73;3.80;;;5.60;99.90;;;;;;5271126;28;20465;-69
2021/12/19 08:53:24;;;;;;;8.23;5.13;;;5.80;99.90;;;;;;5270629;28;20477;-69
2021/12/19 08:55:54;;;;;;;8.68;4.95;;;5.80;99.90;;;;;;5274126;28;20473;-69
2021/12/19 08:58:28;;;;;;;4.80;3.00;;;5.70;99.90;;;;;;5273343;28;20032;-68
2021/12/19 09:01:01;;;;;;;6.53;3.50;;;5.70;99.90;;;;;;5270865;28;20023;-69
2021/12/19 09:03:32;;;;;;;13.75;7.03;;;5.70;99.90;;;;;;5270476;28;20028;-69
2021/12/19 09:06:07;;;;;;;12.85;5.13;;;5.60;99.90;;;;;;5288196;27;20061;-76
2021/12/19 09:08:38;;;;;;;11.23;6.60;;;5.70;99.90;;;;;;5300555;27;20019;-75
2021/12/19 09:11:09;;;;;;;12.15;9.00;;;5.90;99.90;;;;;;5302798;27;20021;-75
2021/12/19 09:13:40;;;;;;;6.00;3.92;;;5.90;99.90;;;;;;5290722;27;20115;-68
2021/12/19 09:16:11;;;;;;;6.47;3.83;;;6.00;99.90;;;;;;5270010;28;20107;-74
2021/12/19 09:18:42;;;;;;;4.75;2.83;;;6.70;99.90;;;;;;5270322;28;20407;-74
2021/12/19 09:21:13;;;;;;;7.95;4.60;;;6.70;99.90;;;;;;5272748;28;20016;-75
2021/12/19 09:23:44;;;;;;;5.50;2.75;;;6.80;99.90;;;;;;5272828;28;20042;-74
2021/12/19 09:26:16;;;;;;;8.10;2.55;;;7.20;99.90;;;;;;5272587;28;20091;-69
2021/12/19 09:28:46;;;;;;;7.93;2.28;;;7.00;99.90;;;;;;5270340;28;20077;-68
2021/12/19 09:31:17;;;;;;;2.70;1.83;;;7.70;99.90;;;;;;5270230;28;20466;-68
2021/12/19 09:33:48;;;;;;;3.80;1.80;;;7.20;99.90;;;;;;5270293;28;20149;-69
2021/12/19 09:36:19;;;;;;;4.50;2.58;;;7.50;99.90;;;;;;5269961;28;20375;-69
2021/12/19 09:38:50;;;;;;;3.50;1.77;;;7.10;99.90;;;;;;5270028;28;20444;-69
2021/12/19 09:41:29;;;;;;;3.17;2.00;;;7.00;99.90;;;;;;5276973;27;20020;-72
2021/12/19 09:44:06;;;;;;;4.68;1.90;;;7.20;99.90;;;;;;5282908;28;20051;-69
2021/12/19 09:46:40;;;;;;;4.32;2.60;;;7.20;99.90;;;;;;5280146;28;20028;-72
2021/12/19 09:49:13;;;;;;;4.07;2.03;;;6.90;99.90;;;;;;5277475;28;20475;-75
2021/12/19 09:51:46;;;;;;;4.57;2.33;;;6.80;99.90;;;;;;5269667;28;20039;-69
2021/12/19 09:54:17;;;;;;;2.97;1.95;;;6.80;99.90;;;;;;5270489;28;20127;-70
2021/12/19 09:56:49;;;;;;;6.70;2.80;;;6.40;99.90;;;;;;5270678;28;20032;-69
2021/12/19 09:59:21;;;;;;;2.67;1.92;;;6.80;99.90;;;;;;5269075;28;20115;-69
2021/12/19 10:01:52;;;;;;;5.18;2.47;;;6.60;99.90;;;;;;5269320;28;20020;-69
2021/12/19 10:04:34;;;;;;;8.23;3.00;;;6.50;99.90;;;;;;5269630;28;20448;-69
2021/12/19 10:07:10;;;;;;;5.15;2.47;;;6.40;99.90;;;;;;5275170;28;20031;-69
2021/12/19 10:10:26;;;;;;;10.82;4.55;;;6.70;99.90;;;;;;5280444;28;20035;-70
2021/12/19 10:12:58;;;;;;;9.65;4.45;;;6.80;99.90;;;;;;5264425;28;20028;-70
2021/12/19 10:15:34;;;;;;;8.93;5.40;;;7.40;99.90;;;;;;5268888;28;20024;-69
2021/12/19 10:18:16;;;;;;;11.32;7.80;;;7.10;99.90;;;;;;5269634;28;20032;-76
2021/12/19 10:20:58;;;;;;;6.30;3.25;;;7.30;99.90;;;;;;5269420;28;20024;-69
2021/12/19 10:23:31;;;;;;;3.95;2.28;;;7.60;99.90;;;;;;5269068;28;20416;-70
2021/12/19 10:26:06;;;;;;;5.80;2.63;;;8.00;99.90;;;;;;5269265;28;20024;-75
2021/12/19 10:29:10;;;;;;;4.18;2.58;;;8.30;99.90;;;;;;5269282;28;20038;-70
2021/12/19 10:31:41;;;;;;;3.65;2.63;;;8.30;99.90;;;;;;5257115;28;20044;-70
2021/12/19 10:34:23;;;;;;;4.07;2.58;;;8.20;99.90;;;;;;5269190;28;20352;-76
2021/12/19 10:36:54;;;;;;;8.10;4.20;;;8.50;99.90;;;;;;5269420;28;20020;-70
2021/12/19 10:39:39;;;;;;;9.88;6.93;;;8.60;99.90;;;;;;5276915;28;20470;-70
2021/12/19 10:42:10;;;;;;;30.70;5.07;;;9.30;99.90;;;;;;5289882;28;20108;-76
2021/12/19 10:47:34;;;;;;;21.52;13.00;;;7.70;99.90;;;;;;5283827;28;20122;-76
2021/12/19 10:50:05;;;;;;;17.85;10.82;;;7.70;99.90;;;;;;5269035;28;20028;-73
2021/12/19 10:52:38;;;;;;;31.58;19.70;;;7.40;99.90;;;;;;5268391;28;20526;-75
2021/12/19 10:55:12;;;;;;;15.88;9.30;;;7.40;99.90;;;;;;5268554;28;20482;-71
2021/12/19 10:57:43;;;;;;;24.10;16.08;;;7.30;99.90;;;;;;5271162;28;20107;-72
2021/12/19 11:00:24;;;;;;;27.60;16.08;;;7.10;99.90;;;;;;5274752;28;20153;-71
2021/12/19 11:02:55;;;;;;;11.13;7.30;;;6.70;99.90;;;;;;5268640;28;20106;-75
2021/12/19 11:05:40;;;;;;;17.95;11.02;;;6.70;99.90;;;;;;5268697;28;20020;-71
2021/12/19 11:08:11;;;;;;;8.45;4.28;;;7.00;99.90;;;;;;5268667;28;20024;-72
2021/12/19 11:10:42;;;;;;;7.38;3.50;;;6.40;99.90;;;;;;5276825;28;21036;-76
2021/12/19 11:13:16;;;;;;;6.72;3.55;;;6.60;99.90;;;;;;5282128;28;20040;-70
2021/12/19 11:15:49;;;;;;;4.05;2.90;;;6.70;99.90;;;;;;5270550;28;20031;-71
2021/12/19 11:18:20;;;;;;;4.45;2.25;;;6.70;99.90;;;;;;5268850;28;20483;-71
2021/12/19 11:20:51;;;;;;;6.65;3.88;;;6.50;99.90;;;;;;5280633;28;20086;-70
2021/12/19 11:23:22;;;;;;;7.68;4.95;;;6.40;99.90;;;;;;5289440;28;20479;-70
2021/12/19 11:25:55;;;;;;;5.60;3.53;;;6.60;99.90;;;;;;5279810;28;20028;-70
2021/12/19 11:28:26;;;;;;;5.32;3.40;;;6.50;99.90;;;;;;5291589;28;20027;-71
2021/12/19 11:30:57;;;;;;;6.82;3.20;;;6.50;99.90;;;;;;5292509;28;20366;-70
2021/12/19 11:33:31;;;;;;;4.38;2.30;;;6.70;99.90;;;;;;5285746;28;20070;-75
2021/12/19 11:36:03;;;;;;;6.78;3.50;;;6.70;99.90;;;;;;5305735;27;20055;-76
2021/12/19 11:38:36;;;;;;;4.75;2.50;;;6.80;99.90;;;;;;5310901;27;20020;-71
2021/12/19 11:41:09;;;;;;;6.57;3.10;;;6.50;99.90;;;;;;5293585;28;20069;-73
2021/12/19 11:43:43;;;;;;;4.72;2.70;;;7.10;99.90;;;;;;5293543;28;20050;-76
2021/12/19 11:46:20;;;;;;;5.05;3.08;;;7.30;99.90;;;;;;5278246;28;20020;-71
2021/12/19 11:49:10;;;;;;;5.95;3.30;;;6.70;99.90;;;;;;5272531;28;20051;-70
2021/12/19 11:51:41;;;;;;;5.25;3.33;;;6.80;99.90;;;;;;5273126;28;20032;-70
2021/12/19 11:54:18;;;;;;;7.15;5.75;;;6.70;99.90;;;;;;5272195;28;20075;-71
2021/12/19 11:57:09;;;;;;;4.72;3.05;;;6.40;99.90;;;;;;5272122;28;20032;-71
2021/12/19 11:59:40;;;;;;;5.78;3.20;;;6.30;99.90;;;;;;5271954;28;20024;-76
2021/12/19 12:02:25;;;;;;;8.48;4.18;;;6.50;99.90;;;;;;5277866;28;20065;-77
2021/12/19 12:05:14;;;;;;;8.73;4.78;;;6.90;99.90;;;;;;5271863;28;20035;-74
2021/12/19 12:08:10;;;;;;;4.60;3.08;;;7.90;99.90;;;;;;5272106;28;20028;-71
2021/12/19 12:10:51;;;;;;;6.25;3.65;;;7.70;99.90;;;;;;5282356;28;20099;-76
2021/12/19 12:13:32;;;;;;;;;;;7.10;99.90;;;;;;5287558;28;20395;-70
2021/12/19 12:16:22;;;;;;;4.15;2.88;;;7.00;99.90;;;;;;5285155;27;19961;-71
2021/12/19 12:19:03;;;;;;;8.30;3.10;;;7.40;99.90;;;;;;5273887;28;20028;-69
2021/12/19 12:21:42;;;;;;;;;;;7.30;99.90;;;;;;5281121;28;20046;-70
2021/12/19 12:24:13;;;;;;;6.35;2.72;;;7.70;99.90;;;;;;5271698;28;19924;-70
2021/12/19 12:26:49;;;;;;;7.75;3.72;;;7.60;99.90;;;;;;5270236;28;20863;-76
2021/12/19 12:29:22;;;;;;;7.20;2.85;;;7.40;99.90;;;;;;5271469;28;20028;-73
2021/12/19 12:31:54;;;;;;;4.78;2.58;;;6.60;99.90;;;;;;5270177;28;20066;-71
2021/12/19 12:34:24;;;;;;;6.55;2.75;;;7.10;99.90;;;;;;5272286;28;20106;-71
2021/12/19 12:36:57;;;;;;;6.35;2.97;;;7.20;99.90;;;;;;5289223;28;20221;-70
2021/12/19 12:39:37;;;;;;;6.35;3.35;;;7.60;99.90;;;;;;5292119;28;20036;-70
2021/12/19 12:42:11;;;;;;;6.30;3.60;;;8.00;99.90;;;;;;5290965;28;20016;-71
2021/12/19 12:44:43;;;;;;;5.93;3.47;;;8.40;99.90;;;;;;5285287;28;20040;-71
2021/12/19 12:47:17;;;;;;;8.80;4.82;;;8.30;99.90;;;;;;5290443;28;20020;-74
2021/12/19 12:49:48;;;;;;;4.35;2.75;;;8.00;99.90;;;;;;5290844;28;20023;-71
2021/12/19 12:52:20;;;;;;;4.30;2.20;;;7.50;99.90;;;;;;5270741;28;20424;-74
2021/12/19 12:54:52;;;;;;;20.42;12.80;;;7.20;99.90;;;;;;5283478;28;20032;-72
2021/12/19 12:57:27;;;;;;;18.17;9.32;;;7.80;99.90;;;;;;5291818;28;20024;-71
2021/12/19 12:59:58;;;;;;;18.05;12.27;;;7.30;99.90;;;;;;5292035;28;20027;-71
2021/12/19 13:02:41;;;;;;;5.57;2.70;;;7.10;99.90;;;;;;5291927;27;20073;-71
2021/12/19 13:05:13;;;;;;;5.28;3.13;;;7.20;99.90;;;;;;5283708;27;20066;-72
2021/12/19 13:07:44;;;;;;;7.88;3.15;;;7.00;99.90;;;;;;5286322;28;20020;-71
2021/12/19 13:10:15;;;;;;;7.63;4.13;;;6.60;99.90;;;;;;5287146;28;20078;-74
2021/12/19 13:12:47;;;;;;;3.78;2.92;;;6.30;99.90;;;;;;5288534;28;20039;-73
2021/12/19 13:15:17;;;;;;;7.50;3.40;;;6.50;99.90;;;;;;5289437;28;20812;-71
2021/12/19 13:17:50;;;;;;;10.27;3.78;;;6.50;99.90;;;;;;5289954;28;20031;-72
2021/12/19 13:20:25;;;;;;;4.90;2.80;;;6.40;99.90;;;;;;5289743;27;20061;-73
2021/12/19 13:22:58;;;;;;;5.70;3.53;;;6.30;99.90;;;;;;5285240;28;20047;-71
2021/12/19 13:25:40;;;;;;;6.40;3.30;;;6.20;99.90;;;;;;5290032;28;20099;-72
2021/12/19 13:28:20;;;;;;;8.13;4.20;;;6.60;99.90;;;;;;5279182;28;20056;-72
2021/12/19 13:30:54;;;;;;;11.75;6.45;;;6.50;99.90;;;;;;5269128;28;20024;-71
2021/12/19 13:33:30;;;;;;;9.35;5.82;;;6.50;99.90;;;;;;5269939;28;20475;-71
2021/12/19 13:36:00;;;;;;;5.80;3.60;;;6.50;99.90;;;;;;5276410;28;20042;-71
2021/12/19 13:38:32;;;;;;;9.88;6.05;;;6.40;99.90;;;;;;5268440;28;20099;-71
2021/12/19 13:41:06;;;;;;;7.78;4.80;;;6.10;99.90;;;;;;5268450;28;20024;-71
2021/12/19 13:43:38;;;;;;;10.23;6.07;;;5.90;99.90;;;;;;5269232;28;20114;-71
2021/12/19 13:46:13;;;;;;;6.65;4.32;;;5.90;99.90;;;;;;5268422;28;20028;-71
2021/12/19 13:48:52;;;;;;;8.38;5.15;;;5.90;99.90;;;;;;5267762;28;20592;-71
2021/12/19 13:51:31;;;;;;;8.73;4.75;;;6.00;99.90;;;;;;5274991;28;20035;-71
2021/12/19 13:54:03;;;;;;;9.48;5.75;;;5.90;99.90;;;;;;5269144;28;20119;-71
2021/12/19 13:56:36;;;;;;;10.07;5.22;;;5.70;99.90;;;;;;5269652;28;20463;-71
2021/12/19 13:59:20;;;;;;;11.63;6.05;;;5.90;99.90;;;;;;5269864;28;20056;-71
2021/12/19 14:01:51;;;;;;;10.98;6.65;;;5.90;99.90;;;;;;5269744;28;20554;-71
2021/12/19 14:04:24;;;;;;;8.13;5.00;;;5.70;99.90;;;;;;5277854;28;20111;-71
2021/12/19 14:07:00;;;;;;;7.18;4.78;;;5.40;99.90;;;;;;5272258;28;20070;-71
2021/12/19 14:09:39;;;;;;;10.32;4.93;;;5.40;99.90;;;;;;5287397;28;20019;-71
2021/12/19 14:12:14;;;;;;;8.18;4.22;;;5.50;99.90;;;;;;5290479;28;20039;-71
2021/12/19 14:14:45;;;;;;;9.32;4.82;;;5.40;99.90;;;;;;5286869;28;20039;-70
2021/12/19 14:17:16;;;;;;;10.93;6.00;;;5.50;99.90;;;;;;5269514;28;20355;-73
2021/12/19 14:19:52;;;;;;;9.07;5.95;;;5.30;99.90;;;;;;5281346;28;20129;-70
2021/12/19 14:22:25;;;;;;;10.52;4.78;;;5.30;99.90;;;;;;5290441;28;20115;-71
2021/12/19 14:24:57;;;;;;;36.65;17.52;;;5.20;99.90;;;;;;5290256;28;20032;-69
2021/12/19 14:27:35;;;;;;;16.48;8.40;;;5.10;99.90;;;;;;5290406;28;20455;-69
2021/12/19 14:30:15;;;;;;;74.40;37.40;;;5.20;99.90;;;;;;5280076;28;20113;-69
2021/12/19 14:32:47;;;;;;;18.60;9.73;;;5.00;99.90;;;;;;5269291;28;20027;-69
2021/12/19 14:35:24;;;;;;;11.75;6.85;;;4.50;99.90;;;;;;5269075;28;20024;-69
2021/12/19 14:38:00;;;;;;;10.65;6.47;;;4.80;99.90;;;;;;5269109;28;20051;-70